Time;durP1;ratioP1;P1;durP2;ratioP2;P2;SDS_P1;SDS_P2;PMS_P1;PMS_P2;Temp;Humidity;BMP_temperature;BMP_pressure;BME280_temperature;BME280_humidity;BME280_pressure;Samples;Min_cycle;Max_cycle;Signal;HPM_P1;HPM_P2
2024/02/20 00:00:08;;;;;;;11.80;3.90;;;;;;;;;;4878733;29;20300;-81
2024/02/20 00:02:36;;;;;;;15.30;4.00;;;;;;;;;;4878869;29;20608;-81
2024/02/20 00:05:06;;;;;;;12.13;3.93;;;;;;;;;;4879205;29;20233;-81
2024/02/20 00:07:34;;;;;;;16.27;3.60;;;;;;;;;;4878602;29;20237;-82
2024/02/20 00:10:01;;;;;;;14.97;3.60;;;;;;;;;;4879051;29;20244;-81
2024/02/20 00:12:28;;;;;;;11.93;3.50;;;;;;;;;;4878606;29;20289;-81
2024/02/20 00:14:58;;;;;;;12.83;3.83;;;;;;;;;;4878732;29;20233;-80
2024/02/20 00:17:27;;;;;;;15.10;4.13;;;;;;;;;;4878528;29;20202;-81
2024/02/20 00:19:54;;;;;;;16.33;4.20;;;;;;;;;;4878060;29;20646;-80
2024/02/20 00:22:21;;;;;;;14.87;3.70;;;;;;;;;;4878298;29;20206;-80
2024/02/20 00:24:49;;;;;;;12.87;3.43;;;;;;;;;;4878644;29;20206;-82
2024/02/20 00:27:16;;;;;;;17.83;3.90;;;;;;;;;;4878439;29;20206;-82
2024/02/20 00:29:43;;;;;;;17.20;3.77;;;;;;;;;;4878487;29;20197;-81
2024/02/20 00:32:13;;;;;;;15.47;3.90;;;;;;;;;;4878693;29;20209;-80
2024/02/20 00:34:40;;;;;;;18.77;3.73;;;;;;;;;;4878096;29;20217;-81
2024/02/20 00:37:07;;;;;;;19.90;3.90;;;;;;;;;;4877753;29;20668;-81
2024/02/20 00:39:34;;;;;;;17.97;3.47;;;;;;;;;;4878082;29;20297;-81
2024/02/20 00:42:02;;;;;;;13.90;3.03;;;;;;;;;;4877795;29;20258;-81
2024/02/20 00:44:29;;;;;;;15.30;3.13;;;;;;;;;;4877326;29;20324;-80
2024/02/20 00:46:56;;;;;;;17.47;3.40;;;;;;;;;;4878194;29;20238;-81
2024/02/20 00:49:25;;;;;;;16.77;3.80;;;;;;;;;;4878552;29;20213;-80
2024/02/20 00:51:52;;;;;;;21.07;4.10;;;;;;;;;;4877837;29;20328;-81
2024/02/20 00:54:21;;;;;;;29.73;8.20;;;;;;;;;;4878025;29;20725;-80
2024/02/20 00:56:49;;;;;;;29.47;8.07;;;;;;;;;;4877997;29;20574;-81
2024/02/20 00:59:16;;;;;;;22.23;3.80;;;;;;;;;;4877951;29;20591;-81
2024/02/20 01:01:43;;;;;;;15.63;4.30;;;;;;;;;;4877807;29;20666;-81
2024/02/20 01:04:10;;;;;;;18.40;3.83;;;;;;;;;;4877550;29;20272;-81
2024/02/20 01:06:39;;;;;;;26.40;3.60;;;;;;;;;;4878067;29;20201;-81
2024/02/20 01:09:06;;;;;;;21.97;3.40;;;;;;;;;;4878049;29;20212;-81
2024/02/20 01:11:34;;;;;;;17.83;3.37;;;;;;;;;;4877754;29;20237;-81
2024/02/20 01:14:01;;;;;;;17.33;3.47;;;;;;;;;;4877577;29;20204;-81
2024/02/20 01:16:28;;;;;;;23.63;3.30;;;;;;;;;;4878140;29;20233;-81
2024/02/20 01:18:56;;;;;;;20.20;3.70;;;;;;;;;;4877384;29;20312;-81
2024/02/20 01:21:23;;;;;;;18.40;3.83;;;;;;;;;;4877600;29;20216;-80
2024/02/20 01:23:51;;;;;;;18.07;4.13;;;;;;;;;;4876688;29;20328;-81
2024/02/20 01:26:19;;;;;;;16.83;3.57;;;;;;;;;;4878163;29;20638;-81
2024/02/20 01:28:47;;;;;;;16.97;2.97;;;;;;;;;;4877474;29;20208;-80
2024/02/20 01:31:17;;;;;;;16.27;3.33;;;;;;;;;;4877569;29;20238;-80
2024/02/20 01:33:44;;;;;;;17.73;3.30;;;;;;;;;;4877210;29;20707;-81
2024/02/20 01:36:11;;;;;;;19.13;3.20;;;;;;;;;;4877987;29;20672;-81
2024/02/20 01:38:39;;;;;;;18.03;3.43;;;;;;;;;;4877478;29;20214;-80
2024/02/20 01:41:07;;;;;;;19.67;3.23;;;;;;;;;;4877298;29;20293;-81
2024/02/20 01:43:35;;;;;;;16.37;3.50;;;;;;;;;;4877565;29;20324;-81
2024/02/20 01:46:02;;;;;;;17.07;3.20;;;;;;;;;;4877601;29;20208;-81
2024/02/20 01:48:29;;;;;;;15.63;2.83;;;;;;;;;;4877050;29;20301;-81
2024/02/20 01:50:57;;;;;;;15.53;2.70;;;;;;;;;;4877737;29;20321;-81
2024/02/20 01:53:24;;;;;;;22.60;3.67;;;;;;;;;;4877006;29;20245;-81
2024/02/20 01:55:51;;;;;;;20.60;3.83;;;;;;;;;;4880481;29;20639;-81
2024/02/20 01:58:20;;;;;;;23.17;4.63;;;;;;;;;;4881138;29;20620;-81
2024/02/20 02:00:47;;;;;;;17.40;3.53;;;;;;;;;;4881308;29;20214;-80
2024/02/20 02:03:15;;;;;;;19.00;3.60;;;;;;;;;;4880158;29;20316;-81
2024/02/20 02:05:42;;;;;;;19.27;3.70;;;;;;;;;;4880368;29;20298;-81
2024/02/20 02:08:14;;;;;;;21.50;3.83;;;;;;;;;;4880809;29;20292;-81
2024/02/20 02:10:42;;;;;;;18.50;3.63;;;;;;;;;;4881152;29;20208;-81
2024/02/20 02:13:09;;;;;;;18.43;3.90;;;;;;;;;;4881067;29;20205;-82
2024/02/20 02:15:37;;;;;;;18.70;3.10;;;;;;;;;;4880781;29;20238;-81
2024/02/20 02:18:05;;;;;;;24.03;3.50;;;;;;;;;;4880819;29;20271;-81
2024/02/20 02:20:32;;;;;;;15.97;3.37;;;;;;;;;;4880751;29;20352;-81
2024/02/20 02:23:01;;;;;;;19.87;3.97;;;;;;;;;;4879968;29;20224;-81
2024/02/20 02:25:28;;;;;;;26.23;4.10;;;;;;;;;;4880807;29;20238;-81
2024/02/20 02:27:57;;;;;;;14.43;3.33;;;;;;;;;;4880639;29;20293;-81
2024/02/20 02:30:23;;;;;;;18.60;4.17;;;;;;;;;;4880293;29;20236;-81
2024/02/20 02:32:51;;;;;;;21.30;4.10;;;;;;;;;;4880631;29;20292;-81
2024/02/20 02:35:18;;;;;;;19.73;3.60;;;;;;;;;;4880604;29;20212;-81
2024/02/20 02:37:45;;;;;;;17.70;3.97;;;;;;;;;;4880213;29;20238;-81
2024/02/20 02:40:13;;;;;;;20.17;3.33;;;;;;;;;;4880216;29;20202;-80
2024/02/20 02:42:41;;;;;;;26.47;3.93;;;;;;;;;;4880200;29;20237;-82
2024/02/20 02:45:10;;;;;;;20.10;3.93;;;;;;;;;;4880123;29;20248;-81
2024/02/20 02:47:37;;;;;;;17.93;3.70;;;;;;;;;;4879902;29;20237;-81
2024/02/20 02:50:04;;;;;;;23.07;3.33;;;;;;;;;;4880045;29;20241;-80
2024/02/20 02:52:31;;;;;;;18.80;3.53;;;;;;;;;;4879632;29;20249;-81
2024/02/20 02:54:59;;;;;;;20.47;3.33;;;;;;;;;;4880392;29;20301;-82
2024/02/20 02:57:27;;;;;;;18.43;3.80;;;;;;;;;;4880021;29;20202;-81
2024/02/20 02:59:54;;;;;;;21.10;3.70;;;;;;;;;;4880248;29;20213;-80
2024/02/20 03:02:23;;;;;;;14.97;3.23;;;;;;;;;;4879931;29;20250;-82
2024/02/20 03:04:51;;;;;;;18.67;3.63;;;;;;;;;;4879894;29;20234;-82
2024/02/20 03:07:18;;;;;;;13.13;3.03;;;;;;;;;;4878982;29;20212;-81
2024/02/20 03:09:45;;;;;;;18.83;3.27;;;;;;;;;;4879932;29;20234;-82
2024/02/20 03:12:12;;;;;;;17.57;3.07;;;;;;;;;;4880200;29;20233;-81
2024/02/20 03:14:39;;;;;;;21.67;3.30;;;;;;;;;;4879186;29;20301;-82
2024/02/20 03:17:06;;;;;;;22.63;3.90;;;;;;;;;;4879266;29;20240;-82
2024/02/20 03:19:35;;;;;;;17.30;3.37;;;;;;;;;;4879867;29;20314;-82
2024/02/20 03:22:02;;;;;;;21.40;3.83;;;;;;;;;;4879379;29;20288;-81
2024/02/20 03:24:30;;;;;;;25.70;3.80;;;;;;;;;;4879365;29;20745;-82
2024/02/20 03:26:57;;;;;;;21.53;3.90;;;;;;;;;;4879567;29;20238;-82
2024/02/20 03:29:25;;;;;;;17.10;3.40;;;;;;;;;;4879203;29;20278;-81
2024/02/20 03:31:52;;;;;;;20.57;3.63;;;;;;;;;;4879320;29;20691;-82
2024/02/20 03:34:19;;;;;;;20.40;3.57;;;;;;;;;;4879143;29;20209;-83
2024/02/20 03:36:48;;;;;;;23.67;3.83;;;;;;;;;;4879437;29;20225;-81
2024/02/20 03:39:15;;;;;;;17.80;3.77;;;;;;;;;;4879082;29;20202;-81
2024/02/20 03:41:42;;;;;;;22.97;3.47;;;;;;;;;;4874258;29;20241;-81
2024/02/20 03:44:09;;;;;;;16.63;3.40;;;;;;;;;;4870422;29;20273;-81
2024/02/20 03:46:36;;;;;;;19.07;3.97;;;;;;;;;;4878941;29;20262;-82
2024/02/20 03:49:03;;;;;;;19.77;3.63;;;;;;;;;;4879738;29;20200;-82
2024/02/20 03:51:31;;;;;;;24.77;4.03;;;;;;;;;;4878622;29;20715;-82
2024/02/20 03:53:59;;;;;;;20.97;3.57;;;;;;;;;;4879276;29;20296;-81
2024/02/20 03:56:26;;;;;;;16.43;3.47;;;;;;;;;;4878974;29;20213;-81
2024/02/20 03:58:54;;;;;;;15.33;3.30;;;;;;;;;;4879054;29;20334;-82
2024/02/20 04:01:21;;;;;;;21.67;4.33;;;;;;;;;;4878650;29;20208;-82
2024/02/20 04:03:48;;;;;;;14.47;3.43;;;;;;;;;;4877598;29;20233;-80
2024/02/20 04:06:17;;;;;;;16.80;3.67;;;;;;;;;;4879048;29;20244;-80
2024/02/20 04:08:44;;;;;;;19.30;4.30;;;;;;;;;;4878990;29;20284;-81
2024/02/20 04:11:12;;;;;;;19.60;3.93;;;;;;;;;;4878650;29;20202;-82
2024/02/20 04:13:40;;;;;;;14.97;3.57;;;;;;;;;;4878311;29;20662;-81
2024/02/20 04:16:07;;;;;;;17.63;3.37;;;;;;;;;;4878783;29;20312;-81
2024/02/20 04:18:35;;;;;;;16.70;4.20;;;;;;;;;;4877651;29;20300;-81
2024/02/20 04:21:02;;;;;;;20.77;3.80;;;;;;;;;;4878496;29;20202;-82
2024/02/20 04:23:29;;;;;;;19.00;4.07;;;;;;;;;;4878534;29;20305;-82
2024/02/20 04:25:56;;;;;;;18.83;4.37;;;;;;;;;;4878260;29;20274;-81
2024/02/20 04:28:25;;;;;;;18.40;3.80;;;;;;;;;;4878148;29;20209;-82
2024/02/20 04:30:52;;;;;;;20.63;3.67;;;;;;;;;;4878106;29;20304;-82
2024/02/20 04:33:19;;;;;;;21.17;3.70;;;;;;;;;;4878184;29;20691;-82
2024/02/20 04:35:46;;;;;;;19.57;3.80;;;;;;;;;;4878588;29;20285;-80
2024/02/20 04:38:14;;;;;;;17.80;3.17;;;;;;;;;;4878185;29;20236;-80
2024/02/20 04:40:42;;;;;;;24.03;3.70;;;;;;;;;;4878076;29;20325;-82
2024/02/20 04:43:09;;;;;;;17.40;3.67;;;;;;;;;;4877887;29;20225;-81
2024/02/20 04:45:38;;;;;;;22.47;3.50;;;;;;;;;;4878581;29;20327;-82
2024/02/20 04:48:05;;;;;;;19.50;3.20;;;;;;;;;;4878123;29;20210;-81
2024/02/20 04:50:32;;;;;;;17.33;3.63;;;;;;;;;;4877757;29;20333;-81
2024/02/20 04:52:59;;;;;;;20.67;3.47;;;;;;;;;;4878119;29;20300;-82
2024/02/20 04:55:26;;;;;;;20.40;3.57;;;;;;;;;;4877857;29;20237;-81
2024/02/20 04:57:54;;;;;;;21.60;3.57;;;;;;;;;;4877909;29;20209;-81
2024/02/20 05:00:21;;;;;;;21.37;3.83;;;;;;;;;;4878054;29;20284;-81
2024/02/20 05:02:50;;;;;;;21.07;3.60;;;;;;;;;;4877737;29;20245;-82
2024/02/20 05:05:17;;;;;;;16.77;3.63;;;;;;;;;;4877920;29;20274;-81
2024/02/20 05:07:44;;;;;;;22.43;3.47;;;;;;;;;;4878063;29;20338;-81
2024/02/20 05:10:12;;;;;;;16.37;3.50;;;;;;;;;;4877930;29;20198;-81
2024/02/20 05:12:39;;;;;;;24.50;4.03;;;;;;;;;;4877175;29;20258;-82
2024/02/20 05:15:06;;;;;;;22.40;4.33;;;;;;;;;;4877860;29;20328;-82
2024/02/20 05:17:34;;;;;;;18.93;3.77;;;;;;;;;;4877880;29;20636;-82
2024/02/20 05:20:03;;;;;;;20.33;3.87;;;;;;;;;;4877516;29;20293;-82
2024/02/20 05:22:30;;;;;;;18.37;3.77;;;;;;;;;;4877775;29;20206;-81
2024/02/20 05:24:57;;;;;;;20.47;3.70;;;;;;;;;;4877395;29;20330;-81
2024/02/20 05:27:24;;;;;;;23.70;3.67;;;;;;;;;;4877566;29;20214;-82
2024/02/20 05:29:51;;;;;;;18.60;3.27;;;;;;;;;;4881006;29;20567;-81
2024/02/20 05:32:19;;;;;;;22.00;3.83;;;;;;;;;;4883052;29;20572;-80
2024/02/20 05:34:47;;;;;;;24.20;4.07;;;;;;;;;;4884300;29;20209;-81
2024/02/20 05:37:15;;;;;;;24.33;4.03;;;;;;;;;;4883752;29;20288;-80
2024/02/20 05:39:42;;;;;;;18.30;3.00;;;;;;;;;;4883341;29;20646;-81
2024/02/20 05:42:10;;;;;;;18.77;3.23;;;;;;;;;;4883837;29;20277;-81
2024/02/20 05:44:37;;;;;;;15.63;3.20;;;;;;;;;;4883445;29;20263;-80
2024/02/20 05:47:05;;;;;;;19.00;3.33;;;;;;;;;;4883223;29;20312;-81
2024/02/20 05:49:32;;;;;;;16.37;3.30;;;;;;;;;;4884104;29;20226;-81
2024/02/20 05:52:00;;;;;;;15.30;3.50;;;;;;;;;;4883139;29;20234;-81
2024/02/20 05:54:28;;;;;;;20.87;3.47;;;;;;;;;;4883247;29;20201;-80
2024/02/20 05:56:55;;;;;;;17.13;3.43;;;;;;;;;;4883809;29;20289;-80
2024/02/20 05:59:23;;;;;;;22.60;3.60;;;;;;;;;;4883185;29;20201;-81
2024/02/20 06:01:50;;;;;;;13.93;2.90;;;;;;;;;;4883710;29;20202;-80
2024/02/20 06:04:17;;;;;;;18.60;3.50;;;;;;;;;;4883633;29;20202;-80
2024/02/20 06:06:46;;;;;;;19.83;3.43;;;;;;;;;;4883568;29;20206;-79
2024/02/20 06:09:13;;;;;;;15.00;2.97;;;;;;;;;;4883159;29;20210;-81
2024/02/20 06:11:41;;;;;;;13.97;2.83;;;;;;;;;;4883345;29;20241;-80
2024/02/20 06:14:09;;;;;;;17.30;3.47;;;;;;;;;;4883324;29;20229;-81
2024/02/20 06:16:36;;;;;;;19.03;3.73;;;;;;;;;;4883563;29;20229;-80
2024/02/20 06:19:03;;;;;;;19.37;3.70;;;;;;;;;;4882914;29;20285;-81
2024/02/20 06:21:30;;;;;;;17.00;3.37;;;;;;;;;;4883822;29;20300;-79
2024/02/20 06:23:57;;;;;;;17.13;3.10;;;;;;;;;;4882893;29;20222;-80
2024/02/20 06:26:24;;;;;;;16.07;3.30;;;;;;;;;;4883408;29;20322;-80
2024/02/20 06:28:53;;;;;;;15.43;2.90;;;;;;;;;;4883333;29;20237;-81
2024/02/20 06:31:20;;;;;;;13.10;3.30;;;;;;;;;;4883160;29;20233;-80
2024/02/20 06:33:47;;;;;;;19.27;3.63;;;;;;;;;;4883306;29;20292;-80
2024/02/20 06:36:15;;;;;;;16.80;3.20;;;;;;;;;;4883649;29;20234;-79
2024/02/20 06:38:42;;;;;;;13.60;3.40;;;;;;;;;;4881796;29;20216;-80
2024/02/20 06:41:09;;;;;;;17.57;3.40;;;;;;;;;;4879915;29;20234;-80
2024/02/20 06:43:37;;;;;;;14.13;3.30;;;;;;;;;;4879493;29;20201;-81
2024/02/20 06:46:06;;;;;;;18.93;4.10;;;;;;;;;;4879808;29;20230;-81
2024/02/20 06:48:33;;;;;;;18.27;3.53;;;;;;;;;;4880299;29;20201;-81
2024/02/20 06:51:01;;;;;;;13.37;3.13;;;;;;;;;;4879509;29;20272;-81
2024/02/20 06:53:28;;;;;;;17.23;3.80;;;;;;;;;;4878713;29;20233;-81
2024/02/20 06:55:55;;;;;;;13.67;3.33;;;;;;;;;;4879909;29;20760;-81
2024/02/20 06:58:22;;;;;;;12.30;3.53;;;;;;;;;;4879735;29;20205;-81
2024/02/20 07:00:50;;;;;;;13.70;3.30;;;;;;;;;;4879759;29;20300;-82
2024/02/20 07:03:19;;;;;;;21.33;3.97;;;;;;;;;;4879814;29;20202;-81
2024/02/20 07:05:46;;;;;;;14.83;3.90;;;;;;;;;;4879867;29;20628;-81
2024/02/20 07:08:13;;;;;;;13.17;3.60;;;;;;;;;;4879275;29;20197;-81
2024/02/20 07:10:40;;;;;;;13.90;3.60;;;;;;;;;;4879834;29;20207;-81
2024/02/20 07:13:08;;;;;;;13.70;3.50;;;;;;;;;;4879585;29;20289;-81
2024/02/20 07:15:35;;;;;;;13.70;4.73;;;;;;;;;;4879487;29;20703;-81
2024/02/20 07:18:03;;;;;;;18.50;4.73;;;;;;;;;;4879207;29;20209;-81
2024/02/20 07:20:32;;;;;;;14.03;4.23;;;;;;;;;;4879364;29;20210;-81
2024/02/20 07:23:00;;;;;;;17.23;4.50;;;;;;;;;;4879091;29;20206;-81
2024/02/20 07:25:27;;;;;;;16.20;4.03;;;;;;;;;;4879224;29;21032;-81
2024/02/20 07:27:54;;;;;;;13.03;4.17;;;;;;;;;;4879531;29;20318;-81
2024/02/20 07:30:21;;;;;;;15.77;4.73;;;;;;;;;;4885193;29;20296;-81
2024/02/20 07:32:48;;;;;;;17.10;4.97;;;;;;;;;;4897817;29;20201;-81
2024/02/20 07:35:17;;;;;;;11.97;3.77;;;;;;;;;;4884951;29;20210;-82
2024/02/20 07:37:46;;;;;;;16.63;3.70;;;;;;;;;;4877859;29;20202;-80
2024/02/20 07:40:13;;;;;;;18.97;5.13;;;;;;;;;;4891824;29;20205;-81
2024/02/20 07:42:41;;;;;;;11.83;3.77;;;;;;;;;;4897632;29;20678;-81
2024/02/20 07:45:08;;;;;;;15.37;4.07;;;;;;;;;;4892394;29;20226;-81
2024/02/20 07:47:36;;;;;;;18.43;3.90;;;;;;;;;;4878765;29;20748;-81
2024/02/20 07:50:04;;;;;;;16.87;4.20;;;;;;;;;;4881942;29;20241;-81
2024/02/20 07:52:31;;;;;;;16.70;4.13;;;;;;;;;;4897516;29;20228;-81
2024/02/20 07:55:00;;;;;;;14.63;4.50;;;;;;;;;;4897237;29;20871;-81
2024/02/20 07:57:27;;;;;;;12.63;3.87;;;;;;;;;;4897761;29;20288;-81
2024/02/20 07:59:54;;;;;;;11.40;3.83;;;;;;;;;;4897330;29;20237;-80
2024/02/20 08:02:21;;;;;;;14.00;4.87;;;;;;;;;;4897390;29;20288;-80
2024/02/20 08:04:49;;;;;;;18.50;5.43;;;;;;;;;;4897070;29;20735;-80
2024/02/20 08:07:16;;;;;;;20.70;7.77;;;;;;;;;;4896290;29;20212;-80
2024/02/20 08:09:43;;;;;;;12.53;4.47;;;;;;;;;;4896590;29;20671;-80
2024/02/20 08:12:12;;;;;;;11.47;3.97;;;;;;;;;;4896412;29;20299;-81
2024/02/20 08:14:40;;;;;;;10.07;3.57;;;;;;;;;;4896281;29;20289;-81
2024/02/20 08:17:07;;;;;;;12.43;3.40;;;;;;;;;;4896174;29;20236;-81
2024/02/20 08:19:34;;;;;;;8.65;3.00;;;;;;;;;;4896645;29;20682;-81
2024/02/20 08:22:02;;;;;;;9.30;3.00;;;;;;;;;;4897129;29;20197;-81
2024/02/20 08:24:29;;;;;;;10.25;3.28;;;;;;;;;;4897445;29;20732;-80
2024/02/20 08:26:57;;;;;;;10.55;2.60;;;;;;;;;;4897332;29;20255;-81
2024/02/20 08:29:27;;;;;;;10.10;2.97;;;;;;;;;;4896758;29;20208;-81
2024/02/20 08:31:56;;;;;;;7.72;2.40;;;;;;;;;;4896448;29;20238;-81
2024/02/20 08:34:23;;;;;;;10.52;2.67;;;;;;;;;;4896457;29;20228;-80
2024/02/20 08:36:50;;;;;;;6.97;2.30;;;;;;;;;;4891925;29;20297;-81
2024/02/20 08:39:17;;;;;;;11.73;3.17;;;;;;;;;;4877792;29;20237;-80
2024/02/20 08:41:45;;;;;;;9.77;2.67;;;;;;;;;;4893101;29;20288;-80
2024/02/20 08:44:12;;;;;;;8.55;3.13;;;;;;;;;;4878314;29;20197;-81
2024/02/20 08:46:41;;;;;;;6.47;2.20;;;;;;;;;;4877704;29;20237;-82
2024/02/20 08:49:08;;;;;;;11.05;3.10;;;;;;;;;;4859366;29;20322;-82
2024/02/20 08:51:35;;;;;;;10.57;3.28;;;;;;;;;;4859315;29;20242;-81
2024/02/20 08:54:03;;;;;;;9.85;2.35;;;;;;;;;;4859511;29;20218;-81
2024/02/20 08:56:30;;;;;;;9.55;2.78;;;;;;;;;;4859310;29;20298;-81
2024/02/20 08:58:57;;;;;;;9.65;2.83;;;;;;;;;;4859428;29;20207;-81
2024/02/20 09:01:25;;;;;;;11.68;2.60;;;;;;;;;;4859131;29;20669;-81
2024/02/20 09:03:55;;;;;;;9.82;2.28;;;;;;;;;;4857462;29;20297;-81
2024/02/20 09:06:23;;;;;;;9.57;2.25;;;;;;;;;;4858924;29;20338;-80
2024/02/20 09:08:50;;;;;;;8.00;2.60;;;;;;;;;;4858845;29;20203;-80
2024/02/20 09:11:17;;;;;;;11.63;2.78;;;;;;;;;;4859335;29;20234;-80
2024/02/20 09:13:44;;;;;;;16.27;3.30;;;;;;;;;;4874883;29;20289;-80
2024/02/20 09:16:11;;;;;;;13.82;3.33;;;;;;;;;;4891437;29;20205;-81
2024/02/20 09:18:39;;;;;;;8.82;2.90;;;;;;;;;;4896091;29;20243;-80
2024/02/20 09:21:08;;;;;;;9.63;2.95;;;;;;;;;;4888585;29;20198;-80
2024/02/20 09:23:37;;;;;;;9.88;2.50;;;;;;;;;;4877931;29;20229;-80
2024/02/20 09:26:06;;;;;;;9.95;3.60;;;;;;;;;;4877464;29;20770;-81
2024/02/20 09:28:33;;;;;;;10.07;3.60;;;;;;;;;;4877888;29;20228;-80
2024/02/20 09:31:00;;;;;;;10.40;3.77;;;;;;;;;;4884870;29;20299;-80
2024/02/20 09:33:28;;;;;;;10.33;3.73;;;;;;;;;;4895598;29;20652;-81
2024/02/20 09:35:58;;;;;;;10.80;3.83;;;;;;;;;;4896273;29;20292;-81
2024/02/20 09:38:26;;;;;;;9.37;3.80;;;;;;;;;;4881972;29;20256;-81
2024/02/20 09:40:54;;;;;;;9.03;3.77;;;;;;;;;;4893262;29;20229;-80
2024/02/20 09:43:21;;;;;;;6.87;3.87;;;;;;;;;;4896376;29;20205;-80
2024/02/20 09:45:51;;;;;;;9.03;4.60;;;;;;;;;;4895838;29;20320;-80
2024/02/20 09:48:18;;;;;;;7.13;4.70;;;;;;;;;;4896308;29;20245;-81
2024/02/20 09:50:46;;;;;;;9.40;4.73;;;;;;;;;;4895964;29;20272;-79
2024/02/20 09:53:14;;;;;;;8.27;4.90;;;;;;;;;;4895787;29;20661;-80
2024/02/20 09:55:44;;;;;;;8.63;5.83;;;;;;;;;;4895955;29;20201;-80
2024/02/20 09:58:11;;;;;;;11.50;5.40;;;;;;;;;;4896602;29;20296;-80
2024/02/20 10:00:39;;;;;;;7.53;5.10;;;;;;;;;;4895736;29;20216;-81
2024/02/20 10:03:06;;;;;;;11.13;5.03;;;;;;;;;;4895993;29;20284;-80
2024/02/20 10:05:36;;;;;;;12.87;4.97;;;;;;;;;;4895935;29;20208;-80
2024/02/20 10:08:03;;;;;;;8.30;4.47;;;;;;;;;;4895752;29;20304;-80
2024/02/20 10:10:33;;;;;;;10.03;4.57;;;;;;;;;;4891917;29;20284;-80
2024/02/20 10:13:02;;;;;;;9.20;4.50;;;;;;;;;;4887339;29;20220;-79
2024/02/20 10:15:30;;;;;;;9.73;4.80;;;;;;;;;;4891435;29;20743;-80
2024/02/20 10:18:01;;;;;;;10.57;5.03;;;;;;;;;;4898665;29;20211;-80
2024/02/20 10:20:29;;;;;;;11.53;4.83;;;;;;;;;;4899376;29;20252;-81
2024/02/20 10:23:04;;;;;;;12.77;4.80;;;;;;;;;;4899394;29;20576;-80
2024/02/20 10:25:31;;;;;;;12.60;5.07;;;;;;;;;;4899457;29;20259;-80
2024/02/20 10:27:58;;;;;;;13.13;4.10;;;;;;;;;;4882805;29;20240;-81
2024/02/20 10:30:27;;;;;;;11.77;4.97;;;;;;;;;;4892613;29;20288;-80
2024/02/20 10:32:54;;;;;;;9.73;4.30;;;;;;;;;;4883231;29;20312;-80
2024/02/20 10:35:23;;;;;;;11.47;4.40;;;;;;;;;;4882601;29;20231;-80
2024/02/20 10:38:00;;;;;;;17.27;4.87;;;;;;;;;;4880338;29;20206;-80
2024/02/20 10:40:27;;;;;;;11.17;4.17;;;;;;;;;;4879006;29;20198;-80
2024/02/20 10:42:55;;;;;;;9.33;4.07;;;;;;;;;;4880082;29;20285;-81
2024/02/20 10:45:23;;;;;;;10.70;4.10;;;;;;;;;;4879409;29;20208;-80
2024/02/20 10:47:55;;;;;;;8.80;3.80;;;;;;;;;;4880605;29;20798;-79
2024/02/20 10:50:22;;;;;;;8.40;3.73;;;;;;;;;;4881755;29;20310;-80
2024/02/20 10:52:53;;;;;;;9.47;4.10;;;;;;;;;;4890046;29;20198;-80
2024/02/20 10:55:20;;;;;;;10.17;3.97;;;;;;;;;;4890406;29;20296;-80
2024/02/20 10:57:48;;;;;;;8.37;3.80;;;;;;;;;;4888226;29;20206;-81
2024/02/20 11:00:18;;;;;;;9.00;3.13;;;;;;;;;;4887775;29;20292;-80
2024/02/20 11:02:47;;;;;;;8.00;3.67;;;;;;;;;;4888660;29;20210;-80
2024/02/20 11:05:16;;;;;;;10.93;3.73;;;;;;;;;;4887664;29;20398;-80
2024/02/20 11:07:44;;;;;;;8.77;3.63;;;;;;;;;;4890049;29;20600;-80
2024/02/20 11:10:12;;;;;;;11.20;3.23;;;;;;;;;;4886228;29;20215;-81
2024/02/20 11:12:39;;;;;;;8.50;3.40;;;;;;;;;;4886992;29;20670;-81
2024/02/20 11:15:11;;;;;;;9.53;3.27;;;;;;;;;;4879634;29;20230;-80
2024/02/20 11:17:39;;;;;;;9.53;3.43;;;;;;;;;;4861229;29;20707;-81
2024/02/20 11:20:10;;;;;;;7.23;3.60;;;;;;;;;;4861116;29;20207;-80
2024/02/20 11:22:39;;;;;;;8.33;3.77;;;;;;;;;;4873755;29;20293;-79
2024/02/20 11:25:08;;;;;;;9.20;4.33;;;;;;;;;;4879362;29;20319;-80
2024/02/20 11:27:39;;;;;;;9.63;4.23;;;;;;;;;;4874545;29;20226;-80
2024/02/20 11:30:10;;;;;;;9.27;4.00;;;;;;;;;;4880278;29;20194;-80
2024/02/20 11:32:38;;;;;;;9.40;4.70;;;;;;;;;;4863079;29;20197;-80
2024/02/20 11:35:05;;;;;;;7.80;4.20;;;;;;;;;;4888018;29;20201;-80
2024/02/20 11:37:33;;;;;;;10.10;4.37;;;;;;;;;;4890452;29;20340;-80
2024/02/20 11:40:01;;;;;;;7.57;4.33;;;;;;;;;;4879579;29;20237;-80
2024/02/20 11:42:28;;;;;;;8.07;4.20;;;;;;;;;;4879002;29;20233;-80
2024/02/20 11:44:57;;;;;;;8.17;4.33;;;;;;;;;;4885925;29;20208;-80
2024/02/20 11:47:24;;;;;;;10.27;5.07;;;;;;;;;;4889837;29;20227;-80
2024/02/20 11:50:02;;;;;;;8.27;4.13;;;;;;;;;;4878273;29;20225;-80
2024/02/20 11:52:30;;;;;;;8.57;3.70;;;;;;;;;;4879132;29;20233;-80
2024/02/20 11:55:09;;;;;;;10.47;3.93;;;;;;;;;;4879434;29;20767;-81
2024/02/20 11:57:37;;;;;;;10.57;4.43;;;;;;;;;;4878959;29;20202;-81
2024/02/20 12:00:06;;;;;;;5.87;3.63;;;;;;;;;;4879092;29;20295;-81
2024/02/20 12:02:35;;;;;;;9.30;3.90;;;;;;;;;;4878931;29;20270;-80
2024/02/20 12:05:04;;;;;;;7.37;3.87;;;;;;;;;;4879446;29;20865;-81
2024/02/20 12:07:31;;;;;;;6.37;3.60;;;;;;;;;;4878968;29;20237;-81
2024/02/20 12:09:59;;;;;;;6.57;3.60;;;;;;;;;;4878731;29;20209;-81
2024/02/20 12:12:30;;;;;;;6.73;4.30;;;;;;;;;;4878726;29;20213;-81
2024/02/20 12:14:58;;;;;;;7.33;3.83;;;;;;;;;;4878871;29;20296;-81
2024/02/20 12:17:27;;;;;;;9.70;4.17;;;;;;;;;;4878671;29;20297;-80
2024/02/20 12:20:04;;;;;;;8.60;4.77;;;;;;;;;;4878837;29;20206;-81
2024/02/20 12:22:31;;;;;;;7.73;4.03;;;;;;;;;;4878638;29;20296;-81
2024/02/20 12:25:05;;;;;;;9.70;3.87;;;;;;;;;;4879058;29;20292;-81
2024/02/20 12:27:34;;;;;;;9.07;4.30;;;;;;;;;;4878413;29;20234;-81
2024/02/20 12:30:01;;;;;;;11.73;5.00;;;;;;;;;;4878752;29;20221;-80
2024/02/20 12:32:28;;;;;;;9.17;3.80;;;;;;;;;;4878277;29;20206;-80
2024/02/20 12:34:56;;;;;;;9.13;3.77;;;;;;;;;;4878358;29;20206;-81
2024/02/20 12:37:24;;;;;;;6.60;3.87;;;;;;;;;;4878692;29;20206;-80
2024/02/20 12:39:52;;;;;;;10.52;3.53;;;;;;;;;;4877761;29;20301;-80
2024/02/20 12:42:19;;;;;;;8.07;3.90;;;;;;;;;;4877626;29;20740;-82
2024/02/20 12:44:48;;;;;;;11.27;5.03;;;;;;;;;;4878732;29;20650;-80
2024/02/20 12:47:15;;;;;;;10.33;5.13;;;;;;;;;;4877951;29;20233;-81
2024/02/20 12:49:42;;;;;;;8.90;4.33;;;;;;;;;;4878275;29;20234;-80
2024/02/20 12:52:10;;;;;;;8.27;4.23;;;;;;;;;;4878237;29;20257;-81
2024/02/20 12:54:37;;;;;;;8.57;4.37;;;;;;;;;;4877769;29;20202;-80
2024/02/20 12:57:05;;;;;;;9.83;4.40;;;;;;;;;;4878160;29;20198;-81
2024/02/20 12:59:34;;;;;;;9.93;4.60;;;;;;;;;;4877950;29;20293;-81
2024/02/20 13:02:03;;;;;;;9.13;4.50;;;;;;;;;;4877847;29;20237;-81
2024/02/20 13:04:30;;;;;;;9.00;4.33;;;;;;;;;;4878247;29;20297;-80
2024/02/20 13:06:57;;;;;;;9.13;4.00;;;;;;;;;;4878118;29;20727;-81
2024/02/20 13:09:24;;;;;;;5.90;3.30;;;;;;;;;;4877622;29;20673;-81
2024/02/20 13:11:59;;;;;;;7.00;3.90;;;;;;;;;;4877859;29;20212;-80
2024/02/20 13:14:27;;;;;;;7.30;3.70;;;;;;;;;;4877997;29;20204;-80
2024/02/20 13:16:54;;;;;;;5.00;3.60;;;;;;;;;;4876872;29;20209;-80
2024/02/20 13:19:23;;;;;;;5.57;3.00;;;;;;;;;;4877629;29;20292;-81
2024/02/20 13:21:50;;;;;;;6.53;3.13;;;;;;;;;;4878318;29;20297;-81
2024/02/20 13:24:17;;;;;;;5.77;3.30;;;;;;;;;;4877691;29;20225;-80
2024/02/20 13:26:45;;;;;;;5.90;3.30;;;;;;;;;;4876531;29;20234;-80
2024/02/20 13:29:14;;;;;;;5.97;3.27;;;;;;;;;;4877560;29;20210;-80
2024/02/20 13:31:41;;;;;;;6.93;3.30;;;;;;;;;;4877518;29;20659;-80
2024/02/20 13:34:10;;;;;;;5.60;3.27;;;;;;;;;;4878236;29;20289;-80
2024/02/20 13:36:40;;;;;;;6.67;3.23;;;;;;;;;;4877399;29;20605;-81
2024/02/20 13:39:08;;;;;;;7.23;3.20;;;;;;;;;;4877330;29;20198;-80
2024/02/20 13:41:36;;;;;;;7.47;3.93;;;;;;;;;;4876545;29;20564;-79
2024/02/20 13:44:04;;;;;;;3.30;2.70;;;;;;;;;;4877643;29;20233;-81
2024/02/20 13:46:32;;;;;;;6.30;3.07;;;;;;;;;;4877635;29;20202;-80
2024/02/20 13:49:01;;;;;;;6.23;2.87;;;;;;;;;;4877657;29;20229;-81
2024/02/20 13:51:30;;;;;;;4.30;2.67;;;;;;;;;;4879898;29;20247;-81
2024/02/20 13:53:59;;;;;;;5.47;2.80;;;;;;;;;;4880828;29;20197;-79
2024/02/20 13:56:27;;;;;;;6.87;2.80;;;;;;;;;;4881147;29;20880;-79
2024/02/20 13:58:54;;;;;;;5.17;2.40;;;;;;;;;;4880981;29;20688;-80
2024/02/20 14:01:21;;;;;;;5.87;3.07;;;;;;;;;;4880857;29;20229;-81
2024/02/20 14:03:48;;;;;;;4.53;2.60;;;;;;;;;;4881338;29;20292;-81
2024/02/20 14:06:15;;;;;;;4.83;2.30;;;;;;;;;;4881279;29;20746;-79
2024/02/20 14:08:45;;;;;;;5.83;2.50;;;;;;;;;;4880689;29;20324;-80
2024/02/20 14:11:17;;;;;;;3.43;2.17;;;;;;;;;;4881028;29;20593;-80
2024/02/20 14:13:45;;;;;;;3.90;2.10;;;;;;;;;;4880613;29;20267;-81
2024/02/20 14:16:15;;;;;;;6.27;2.47;;;;;;;;;;4881519;29;20198;-81
2024/02/20 14:18:43;;;;;;;3.57;2.10;;;;;;;;;;4880818;29;20206;-80
2024/02/20 14:21:11;;;;;;;4.67;2.60;;;;;;;;;;4880847;29;20289;-81
2024/02/20 14:23:39;;;;;;;6.70;2.23;;;;;;;;;;4880690;29;20202;-79
2024/02/20 14:26:06;;;;;;;4.47;2.43;;;;;;;;;;4880927;29;20208;-79
2024/02/20 14:28:35;;;;;;;3.73;2.13;;;;;;;;;;4880738;29;20317;-81
2024/02/20 14:31:02;;;;;;;4.10;2.40;;;;;;;;;;4880514;29;20210;-80
2024/02/20 14:33:29;;;;;;;4.13;2.37;;;;;;;;;;4880541;29;20288;-80
2024/02/20 14:35:57;;;;;;;5.40;2.10;;;;;;;;;;4880388;29;20233;-79